»·PEaware :: N787FL L00-KSAN

N787FL :: L00-KSAN

FLIGHT INFORMATION

Flight Status: Arrived
Operator: Privately registered:
United States
More flights under this callsign
Pilot: Luis B. (14232)
Aircraft: CESSNA 172 SKYHAWK
(C172)
More flights by this aircraft type
Origin: L00 Rosamond
United States
Destination: KSAN San Diego Intl-Lindbergh
United States
More flights between these airports :: More routes between these airports
Route: +PMD POM V36 JOGIT V363 DANAH V23 MZB
File this flight plan on PilotEdge
Remarks:
Altitude:
(Current/Filed)
8,000ft
Speed:
(Current/Filed)
110kts
Departed: 30-Jul-17 05:31 PM
Arrived: 30-Jul-17 06:48 PM
Distance/Time
Traveled:
138nm/1:17
Distance/Time
To Go:
Arrived

Flight Plot

Page will automatically refresh every two minutes.

Flight plan parsing failed; only flown route is shown


Map Options




Map Legend


Flown Route
Filed Route
Departure Airport
Arrival Airport
Navaid (VOR, NDB)
Fix

Horizontal Profiles

Position Reports

Time Latitude Longitude Heading Altitude Ground
Speed
30-Jul-17 17:33 34.739123 -118.120650 163 6395ft 110kts
30-Jul-17 17:34 34.710345 -118.104330 160 6640ft 118kts
30-Jul-17 17:35 34.679987 -118.088116 167 6856ft 120kts
30-Jul-17 17:36 34.648437 -118.074230 165 7060ft 122kts
30-Jul-17 17:37 34.617782 -118.056390 164 7254ft 122kts
30-Jul-17 17:38 34.586427 -118.042960 168 7490ft 115kts
30-Jul-17 17:39 34.558967 -118.029318 166 7844ft 101kts
30-Jul-17 17:40 34.532703 -118.017015 159 8131ft 104kts
30-Jul-17 17:41 34.505944 -118.003504 158 8430ft 105kts
30-Jul-17 17:42 34.479321 -117.989166 164 8748ft 102kts
30-Jul-17 17:43 34.453690 -117.976432 167 9032ft 99kts
30-Jul-17 17:44 34.425743 -117.962690 165 9035ft 117kts
30-Jul-17 17:45 34.395174 -117.947746 166 9009ft 116kts
30-Jul-17 17:46 34.366323 -117.933339 165 9009ft 109kts
30-Jul-17 17:47 34.338693 -117.919458 163 9011ft 107kts
30-Jul-17 17:48 34.311816 -117.904541 163 9012ft 106kts
30-Jul-17 17:49 34.286509 -117.890589 161 9012ft 107kts
30-Jul-17 17:50 34.257782 -117.877757 159 9019ft 115kts
30-Jul-17 17:51 34.228061 -117.862633 158 9054ft 119kts
30-Jul-17 17:52 34.197519 -117.847207 158 9051ft 121kts
30-Jul-17 17:53 34.166044 -117.831696 159 9024ft 123kts
30-Jul-17 17:54 34.134520 -117.816304 159 9023ft 122kts
30-Jul-17 17:55 34.103285 -117.800905 158 9023ft 122kts
30-Jul-17 17:56 34.071103 -117.788735 176 8997ft 122kts
30-Jul-17 17:57 34.037615 -117.784206 177 8996ft 121kts
30-Jul-17 17:58 34.004272 -117.785761 185 8997ft 120kts
30-Jul-17 17:59 33.970955 -117.785189 179 8996ft 121kts
30-Jul-17 18:00 33.937558 -117.783519 180 8997ft 121kts
30-Jul-17 18:01 33.904062 -117.782334 180 8997ft 121kts
30-Jul-17 18:02 33.871731 -117.781512 181 8995ft 121kts
30-Jul-17 18:03 33.838275 -117.780988 181 8995ft 120kts
30-Jul-17 18:04 33.805025 -117.780785 181 8995ft 120kts
30-Jul-17 18:05 33.771757 -117.777321 156 8964ft 123kts
30-Jul-17 18:06 33.740168 -117.762516 160 8969ft 122kts
30-Jul-17 18:07 33.708586 -117.748289 160 8989ft 121kts
30-Jul-17 18:08 33.676786 -117.735447 170 8997ft 121kts
30-Jul-17 18:09 33.644002 -117.726243 168 8996ft 122kts
30-Jul-17 18:10 33.610962 -117.720039 173 8996ft 122kts
30-Jul-17 18:11 33.577787 -117.714414 171 9030ft 121kts
30-Jul-17 18:12 33.544490 -117.708589 173 9030ft 122kts
30-Jul-17 18:13 33.510728 -117.702901 175 9016ft 123kts
30-Jul-17 18:14 33.477097 -117.696898 163 9024ft 123kts
30-Jul-17 18:15 33.453426 -117.667308 130 9025ft 124kts
30-Jul-17 18:16 33.429799 -117.637810 135 9023ft 123kts
30-Jul-17 18:17 33.405766 -117.607937 133 8978ft 125kts
30-Jul-17 18:18 33.380948 -117.579274 137 8988ft 125kts
30-Jul-17 18:19 33.355153 -117.551442 133 8979ft 125kts
30-Jul-17 18:20 33.330095 -117.522147 133 8976ft 127kts
30-Jul-17 18:21 33.305240 -117.493037 134 8966ft 126kts
30-Jul-17 18:22 33.280074 -117.463973 134 8976ft 127kts
30-Jul-17 18:23 33.255471 -117.434782 129 8984ft 124kts
30-Jul-17 18:24 33.226481 -117.412171 148 8988ft 126kts
30-Jul-17 18:25 33.194039 -117.397889 162 8983ft 125kts
30-Jul-17 18:26 33.161356 -117.384573 160 8986ft 124kts
30-Jul-17 18:27 33.128631 -117.370881 160 8978ft 124kts
30-Jul-17 18:28 33.095974 -117.357754 161 8974ft 124kts
30-Jul-17 18:29 33.063978 -117.343828 165 8664ft 127kts
30-Jul-17 18:30 33.030668 -117.329719 163 8155ft 127kts
30-Jul-17 18:31 32.997399 -117.315932 164 7656ft 128kts
30-Jul-17 18:32 32.963978 -117.301611 162 7170ft 128kts
30-Jul-17 18:33 32.930529 -117.287603 162 6672ft 127kts
30-Jul-17 18:34 32.898329 -117.274033 165 6224ft 124kts
30-Jul-17 18:35 32.867218 -117.260829 159 5972ft 112kts
30-Jul-17 18:36 32.839908 -117.249601 160 5996ft 103kts
30-Jul-17 18:37 32.812429 -117.238196 163 5995ft 107kts
30-Jul-17 18:38 32.784760 -117.225911 163 6017ft 108kts
30-Jul-17 18:39 32.771651 -117.194089 99 5818ft 127kts
30-Jul-17 18:40 32.765813 -117.151305 97 5384ft 133kts
30-Jul-17 18:41 32.759860 -117.107872 98 4852ft 134kts
30-Jul-17 18:42 32.753941 -117.064369 101 4336ft 134kts
30-Jul-17 18:43 32.745764 -117.022692 143 3991ft 119kts
30-Jul-17 18:44 32.714035 -117.022264 207 3492ft 116kts
30-Jul-17 18:45 32.695092 -117.050817 248 2980ft 108kts
30-Jul-17 18:46 32.705352 -117.080009 295 2353ft 97kts
30-Jul-17 18:47 32.714032 -117.109563 287 1542ft 90kts
30-Jul-17 18:48 32.720676 -117.136710 287 913ft 76kts
30-Jul-17 18:49 32.725457 -117.156871 287 547ft 61kts
30-Jul-17 18:50 32.730396 -117.176692 284 149ft 62kts
30-Jul-17 18:51 32.734041 -117.188070 0 21ft 2kts
30-Jul-17 18:52 32.733545 -117.184836 107 21ft 25kts
30-Jul-17 18:53 32.732263 -117.178274 32 21ft 8kts
30-Jul-17 18:54 32.732364 -117.177743 197 21ft 0kts

Navigation Log

Ident Type
Flight plan parsing failed, navigation log unavailable